Time;durP1;ratioP1;P1;durP2;ratioP2;P2;SDS_P1;SDS_P2;PMS_P1;PMS_P2;Temp;Humidity;BMP_temperature;BMP_pressure;BME280_temperature;BME280_humidity;BME280_pressure;Samples;Min_cycle;Max_cycle;Signal;HPM_P1;HPM_P2
2023/01/23 00:00:39;;;;;;;30.33;12.30;;;0.10;99.90;;;;;;5049717;28;20571;-65
2023/01/23 00:03:04;;;;;;;26.73;11.35;;;0.10;99.90;;;;;;5048779;28;20047;-65
2023/01/23 00:05:30;;;;;;;31.15;12.57;;;0.10;99.90;;;;;;5047165;28;20534;-65
2023/01/23 00:07:56;;;;;;;30.88;12.40;;;0.10;99.90;;;;;;5047937;28;20285;-65
2023/01/23 00:10:21;;;;;;;32.08;12.50;;;0.10;99.90;;;;;;5048237;28;20069;-67
2023/01/23 00:12:52;;;;;;;33.33;12.18;;;0.10;99.90;;;;;;5050295;28;20572;-66
2023/01/23 00:15:18;;;;;;;32.78;12.50;;;0.10;99.90;;;;;;5059847;28;20040;-66
2023/01/23 00:17:44;;;;;;;36.08;12.57;;;0.00;99.90;;;;;;5049592;28;20071;-66
2023/01/23 00:20:11;;;;;;;31.98;11.82;;;0.00;99.90;;;;;;5047500;28;20588;-66
2023/01/23 00:22:37;;;;;;;31.13;12.38;;;0.00;99.90;;;;;;5053235;28;20128;-66
2023/01/23 00:25:04;;;;;;;32.47;11.77;;;0.00;99.90;;;;;;5045543;28;20108;-66
2023/01/23 00:27:30;;;;;;;33.05;11.55;;;0.10;99.90;;;;;;5049792;28;20521;-66
2023/01/23 00:29:55;;;;;;;35.63;12.25;;;0.00;99.90;;;;;;5045494;28;20113;-66
2023/01/23 00:32:21;;;;;;;31.77;12.18;;;0.00;99.90;;;;;;5047547;28;20036;-66
2023/01/23 00:34:47;;;;;;;27.35;10.98;;;0.10;99.90;;;;;;5040259;28;20076;-66
2023/01/23 00:37:13;;;;;;;34.90;13.18;;;0.10;99.90;;;;;;5046765;28;20626;-66
2023/01/23 00:39:39;;;;;;;31.95;13.02;;;0.10;99.90;;;;;;5041817;28;20533;-66
2023/01/23 00:42:05;;;;;;;32.92;12.38;;;0.10;99.90;;;;;;5047985;28;20048;-67
2023/01/23 00:44:31;;;;;;;34.28;12.43;;;0.10;99.90;;;;;;5045716;28;20027;-66
2023/01/23 00:46:57;;;;;;;32.97;12.50;;;0.00;99.90;;;;;;5042465;28;20036;-65
2023/01/23 00:49:23;;;;;;;36.08;13.13;;;0.00;99.90;;;;;;5041594;28;20033;-66
2023/01/23 00:51:49;;;;;;;34.25;13.10;;;0.00;99.90;;;;;;5048406;28;20111;-67
2023/01/23 00:54:15;;;;;;;29.50;11.98;;;0.10;99.90;;;;;;5037041;28;20021;-66
2023/01/23 00:56:41;;;;;;;34.30;12.82;;;0.10;99.90;;;;;;5049145;28;20021;-66
2023/01/23 00:59:07;;;;;;;33.97;13.30;;;0.10;99.90;;;;;;5046844;28;20044;-66
2023/01/23 01:01:33;;;;;;;35.50;13.35;;;0.10;99.90;;;;;;5049368;28;20120;-66
2023/01/23 01:03:59;;;;;;;31.92;12.95;;;0.00;99.90;;;;;;5041032;28;20029;-66
2023/01/23 01:06:25;;;;;;;30.98;12.45;;;0.00;99.90;;;;;;5044196;28;20029;-66
2023/01/23 01:08:51;;;;;;;34.05;12.77;;;0.00;99.90;;;;;;5044409;28;20029;-66
2023/01/23 01:11:16;;;;;;;34.60;13.10;;;0.00;99.90;;;;;;5046586;28;20044;-66
2023/01/23 01:13:44;;;;;;;32.63;12.93;;;-0.10;99.90;;;;;;5044143;28;20032;-65
2023/01/23 01:16:10;;;;;;;36.40;12.70;;;0.00;99.90;;;;;;5045822;28;20076;-66
2023/01/23 01:18:37;;;;;;;33.28;12.95;;;0.00;99.90;;;;;;5048993;28;20434;-66
2023/01/23 01:21:11;;;;;;;32.25;11.80;;;0.00;99.90;;;;;;5053912;28;20161;-66
2023/01/23 01:23:37;;;;;;;31.42;12.23;;;0.00;99.90;;;;;;5047994;28;20037;-66
2023/01/23 01:26:03;;;;;;;33.03;12.73;;;-0.10;99.90;;;;;;5046090;28;20040;-65
2023/01/23 01:28:31;;;;;;;35.60;12.77;;;-0.10;99.90;;;;;;5050179;28;20028;-66
2023/01/23 01:31:02;;;;;;;35.00;12.48;;;-0.10;99.90;;;;;;5047359;28;20419;-67
2023/01/23 01:33:27;;;;;;;35.88;12.57;;;0.00;99.90;;;;;;5046911;28;20032;-66
2023/01/23 01:35:55;;;;;;;37.25;13.50;;;0.00;99.90;;;;;;5047260;28;20764;-66
2023/01/23 01:38:21;;;;;;;38.20;14.10;;;0.00;99.90;;;;;;5047616;28;20025;-66
2023/01/23 01:40:47;;;;;;;36.58;13.23;;;0.00;99.90;;;;;;5037176;28;20577;-66
2023/01/23 01:43:23;;;;;;;34.55;13.10;;;0.00;99.90;;;;;;5041269;28;20065;-65
2023/01/23 01:46:04;;;;;;;37.40;13.00;;;0.00;99.90;;;;;;5048943;28;20068;-66
2023/01/23 01:48:42;;;;;;;34.55;13.23;;;0.00;99.90;;;;;;5046932;28;20110;-67
2023/01/23 01:51:20;;;;;;;37.97;13.95;;;0.10;99.90;;;;;;5045353;28;20049;-65
2023/01/23 01:53:50;;;;;;;32.42;13.48;;;0.10;99.90;;;;;;5048488;28;20028;-66
2023/01/23 01:56:17;;;;;;;33.58;12.68;;;0.10;99.90;;;;;;5063608;28;20628;-66
2023/01/23 01:58:46;;;;;;;37.47;13.77;;;0.00;99.90;;;;;;5048220;28;20037;-66
2023/01/23 02:01:12;;;;;;;33.92;12.32;;;0.00;99.90;;;;;;5044879;28;20028;-66
2023/01/23 02:03:38;;;;;;;34.45;13.25;;;0.00;99.90;;;;;;5048215;28;20040;-66
2023/01/23 02:06:05;;;;;;;41.53;13.65;;;0.10;99.90;;;;;;5047727;28;20035;-66
2023/01/23 02:08:52;;;;;;;38.97;13.18;;;0.00;99.90;;;;;;5048181;28;20536;-66
2023/01/23 02:11:18;;;;;;;35.28;13.13;;;0.00;99.90;;;;;;5046178;28;20041;-65
2023/01/23 02:13:44;;;;;;;32.90;12.48;;;0.00;99.90;;;;;;5047505;28;20125;-65
2023/01/23 02:16:38;;;;;;;35.45;12.73;;;0.00;99.90;;;;;;5029732;28;20028;-65
2023/01/23 02:19:18;;;;;;;32.42;12.30;;;0.00;99.90;;;;;;5046861;28;21050;-66
2023/01/23 02:21:48;;;;;;;35.72;12.63;;;0.00;99.90;;;;;;5042791;28;20390;-66
2023/01/23 02:24:25;;;;;;;34.25;12.73;;;0.00;99.90;;;;;;5047593;28;20078;-66
2023/01/23 02:26:50;;;;;;;34.33;12.88;;;0.00;99.90;;;;;;5050356;28;20522;-66
2023/01/23 02:29:18;;;;;;;34.45;12.48;;;0.00;99.90;;;;;;5050769;28;20025;-66
2023/01/23 02:31:44;;;;;;;31.65;11.98;;;0.00;99.90;;;;;;5050001;28;20543;-65
2023/01/23 02:34:12;;;;;;;34.47;12.48;;;0.00;99.90;;;;;;5050305;28;20029;-65
2023/01/23 02:36:41;;;;;;;32.33;11.70;;;0.00;99.90;;;;;;5051383;28;20033;-66
2023/01/23 02:39:18;;;;;;;36.63;13.02;;;0.00;99.90;;;;;;5048919;28;20058;-67
2023/01/23 02:41:49;;;;;;;36.60;11.98;;;0.00;99.90;;;;;;5050182;28;20052;-66
2023/01/23 02:44:18;;;;;;;35.40;12.55;;;0.00;99.90;;;;;;5042276;28;20394;-66
2023/01/23 02:46:44;;;;;;;33.53;11.75;;;0.00;99.90;;;;;;5057573;28;20082;-67
2023/01/23 02:49:10;;;;;;;34.80;12.82;;;0.00;99.90;;;;;;5050289;28;20029;-66
2023/01/23 02:51:36;;;;;;;40.42;13.80;;;0.00;99.90;;;;;;5045753;28;20125;-65
2023/01/23 02:54:03;;;;;;;40.95;13.43;;;-0.10;99.90;;;;;;5049955;28;20029;-66
2023/01/23 02:56:28;;;;;;;37.67;13.50;;;0.00;99.90;;;;;;5048989;28;20068;-66
2023/01/23 03:01:39;;;;;;;37.72;12.77;;;0.00;99.90;;;;;;5050618;28;20395;-67
2023/01/23 03:04:05;;;;;;;40.10;13.95;;;0.00;99.90;;;;;;5044136;28;20029;-66
2023/01/23 03:06:36;;;;;;;38.13;12.68;;;0.00;99.90;;;;;;5051336;28;20132;-66
2023/01/23 03:09:11;;;;;;;35.72;12.57;;;0.00;99.90;;;;;;5030185;28;20033;-65
2023/01/23 03:11:39;;;;;;;37.78;13.30;;;0.00;99.90;;;;;;5047826;28;20555;-65
2023/01/23 03:14:07;;;;;;;38.65;13.60;;;0.10;99.90;;;;;;5049328;28;20036;-66
2023/01/23 03:16:33;;;;;;;36.88;13.07;;;0.10;99.90;;;;;;5050082;28;20128;-66
2023/01/23 03:19:03;;;;;;;39.10;13.30;;;0.10;99.90;;;;;;5052794;28;20052;-66
2023/01/23 03:21:33;;;;;;;38.15;12.63;;;0.10;99.90;;;;;;5061359;28;20037;-66
2023/01/23 03:23:59;;;;;;;37.90;12.48;;;0.00;99.90;;;;;;5041296;28;20057;-66
2023/01/23 03:26:25;;;;;;;37.00;12.20;;;0.00;99.90;;;;;;5048342;28;20106;-66
2023/01/23 03:31:34;;;;;;;35.85;12.88;;;0.00;99.90;;;;;;5046177;28;20091;-65
2023/01/23 03:34:00;;;;;;;37.03;12.57;;;0.10;99.90;;;;;;5049785;28;20654;-65
2023/01/23 03:36:26;;;;;;;37.47;12.80;;;0.10;99.90;;;;;;5055036;28;20039;-65
2023/01/23 03:41:38;;;;;;;37.42;13.85;;;0.20;99.90;;;;;;5050523;28;20076;-66
2023/01/23 03:44:03;;;;;;;37.72;13.38;;;0.20;99.90;;;;;;5049393;28;20035;-68
2023/01/23 03:46:29;;;;;;;39.78;13.93;;;0.20;99.90;;;;;;5050050;28;20115;-65
2023/01/23 03:48:55;;;;;;;38.55;13.10;;;0.10;99.90;;;;;;5050681;28;20055;-65
2023/01/23 03:51:20;;;;;;;42.80;13.52;;;0.10;99.90;;;;;;5047912;28;20044;-64
2023/01/23 03:53:46;;;;;;;40.00;13.48;;;0.20;99.90;;;;;;5048063;28;20091;-66
2023/01/23 03:56:11;;;;;;;41.33;13.40;;;0.20;99.90;;;;;;5049650;28;20033;-65
2023/01/23 03:58:37;;;;;;;37.20;13.10;;;0.20;99.90;;;;;;5045362;28;20633;-64
2023/01/23 04:01:08;;;;;;;40.13;13.50;;;0.20;99.90;;;;;;5050115;28;20060;-65
2023/01/23 04:03:34;;;;;;;39.30;13.32;;;0.20;99.90;;;;;;5050331;28;20024;-65
2023/01/23 04:06:00;;;;;;;41.65;13.43;;;0.20;99.90;;;;;;5049368;28;20028;-65
2023/01/23 04:08:26;;;;;;;39.28;13.05;;;0.10;99.90;;;;;;5047571;28;20102;-66
2023/01/23 04:11:04;;;;;;;35.88;12.65;;;0.10;99.90;;;;;;5047953;28;20079;-65
2023/01/23 04:13:30;;;;;;;35.83;12.60;;;0.10;99.90;;;;;;5041259;28;20106;-65
2023/01/23 04:15:55;;;;;;;37.53;12.30;;;0.00;99.90;;;;;;5046145;28;20462;-65
2023/01/23 04:18:21;;;;;;;43.30;14.13;;;0.10;99.90;;;;;;5047909;28;20029;-65
2023/01/23 04:20:47;;;;;;;35.72;12.52;;;0.10;99.90;;;;;;5049345;28;20024;-66
2023/01/23 04:23:12;;;;;;;40.72;13.07;;;0.10;99.90;;;;;;5047522;28;20032;-65
2023/01/23 04:25:38;;;;;;;35.58;13.18;;;0.10;99.90;;;;;;5048042;28;20078;-65
2023/01/23 04:28:04;;;;;;;39.13;12.82;;;0.10;99.90;;;;;;5048499;28;20465;-65
2023/01/23 04:30:29;;;;;;;41.45;14.13;;;0.10;99.90;;;;;;5047155;28;20029;-65
2023/01/23 04:32:55;;;;;;;41.47;14.32;;;0.10;99.90;;;;;;5047882;28;20032;-66
2023/01/23 04:35:20;;;;;;;37.88;13.30;;;0.10;99.90;;;;;;5047160;28;20036;-65
2023/01/23 04:37:46;;;;;;;44.50;14.35;;;0.10;99.90;;;;;;5049035;28;20029;-64
2023/01/23 04:40:12;;;;;;;43.72;13.73;;;0.10;99.90;;;;;;5047413;28;20029;-65
2023/01/23 04:42:37;;;;;;;36.63;13.02;;;0.10;99.90;;;;;;5047947;28;20063;-65
2023/01/23 04:45:03;;;;;;;40.60;14.57;;;0.10;99.90;;;;;;5048872;28;20538;-64
2023/01/23 04:47:29;;;;;;;39.72;13.18;;;0.10;99.90;;;;;;5040865;28;20541;-65
2023/01/23 04:49:55;;;;;;;37.65;14.07;;;0.10;99.90;;;;;;5048755;28;20029;-65
2023/01/23 04:52:20;;;;;;;40.78;13.55;;;0.20;99.90;;;;;;5046326;28;20040;-66
2023/01/23 04:54:46;;;;;;;40.10;13.32;;;0.20;99.90;;;;;;5048794;28;20064;-64
2023/01/23 04:57:11;;;;;;;42.83;13.57;;;0.20;99.90;;;;;;5047788;28;20117;-65
2023/01/23 04:59:37;;;;;;;43.20;13.68;;;0.20;99.90;;;;;;5047402;28;20155;-65
2023/01/23 05:02:03;;;;;;;38.63;13.27;;;0.20;99.90;;;;;;5055258;28;20051;-65
2023/01/23 05:04:28;;;;;;;38.95;13.70;;;0.20;99.90;;;;;;5047527;28;20118;-65
2023/01/23 05:06:54;;;;;;;38.13;13.30;;;0.20;99.90;;;;;;5047425;28;20159;-66
2023/01/23 05:09:20;;;;;;;42.65;14.45;;;0.20;99.90;;;;;;5046871;28;20052;-65
2023/01/23 05:11:45;;;;;;;41.72;13.98;;;0.20;99.90;;;;;;5048340;28;20122;-65
2023/01/23 05:14:11;;;;;;;38.28;13.77;;;0.20;99.90;;;;;;5045143;28;20037;-65
2023/01/23 05:16:36;;;;;;;51.45;16.42;;;0.20;99.90;;;;;;5043643;28;20086;-65
2023/01/23 05:19:02;;;;;;;54.88;18.20;;;0.20;99.90;;;;;;5048212;28;20830;-65
2023/01/23 05:21:28;;;;;;;50.22;16.23;;;0.10;99.90;;;;;;5046395;28;20037;-65
2023/01/23 05:23:53;;;;;;;48.33;16.23;;;0.10;99.90;;;;;;5047182;28;20025;-64
2023/01/23 05:26:19;;;;;;;46.88;15.43;;;0.10;99.90;;;;;;5043358;28;20394;-65
2023/01/23 05:28:45;;;;;;;50.92;16.75;;;0.10;99.90;;;;;;5046393;28;20021;-64
2023/01/23 05:31:12;;;;;;;44.72;15.60;;;0.10;99.90;;;;;;5046996;28;20036;-66
2023/01/23 05:33:39;;;;;;;47.58;16.35;;;0.10;99.90;;;;;;5048506;28;20446;-65
2023/01/23 05:36:05;;;;;;;46.17;16.55;;;0.20;99.90;;;;;;5047858;28;20033;-65
2023/01/23 05:38:31;;;;;;;50.22;16.63;;;0.10;99.90;;;;;;5029574;28;20561;-64
2023/01/23 05:40:56;;;;;;;37.17;14.20;;;0.10;99.90;;;;;;5027959;28;20112;-64
2023/01/23 05:43:22;;;;;;;43.00;15.27;;;0.10;99.90;;;;;;5041580;28;20493;-65
2023/01/23 05:45:48;;;;;;;47.53;15.25;;;0.10;99.90;;;;;;5048619;28;20375;-64
2023/01/23 05:48:13;;;;;;;41.97;15.65;;;0.10;99.90;;;;;;5047580;28;20061;-66
2023/01/23 05:50:40;;;;;;;40.80;14.25;;;0.20;99.90;;;;;;5047613;28;20047;-64
2023/01/23 05:53:05;;;;;;;45.63;14.90;;;0.10;99.90;;;;;;5048459;28;20029;-64
2023/01/23 05:55:31;;;;;;;49.70;15.20;;;0.10;99.90;;;;;;5041917;28;20108;-65
2023/01/23 05:57:57;;;;;;;47.60;15.60;;;0.10;99.90;;;;;;5050229;28;20087;-65
2023/01/23 06:00:22;;;;;;;48.70;16.05;;;0.10;99.90;;;;;;5053866;28;20028;-65
2023/01/23 06:02:48;;;;;;;45.55;15.10;;;0.10;99.90;;;;;;5054129;28;20044;-65
2023/01/23 06:05:14;;;;;;;78.35;24.55;;;0.10;99.90;;;;;;5046682;28;20033;-66
2023/01/23 06:07:39;;;;;;;44.33;14.93;;;0.10;99.90;;;;;;5052506;28;20028;-64
2023/01/23 06:10:06;;;;;;;49.10;16.52;;;0.10;99.90;;;;;;5054760;28;20432;-65
2023/01/23 06:12:32;;;;;;;51.60;19.58;;;0.00;99.90;;;;;;5054088;28;20045;-65
2023/01/23 06:14:57;;;;;;;53.20;18.58;;;0.00;99.90;;;;;;5054476;28;20029;-65
2023/01/23 06:17:23;;;;;;;53.67;18.27;;;0.10;99.90;;;;;;5052640;28;20033;-65
2023/01/23 06:19:48;;;;;;;52.47;17.77;;;0.10;99.90;;;;;;5051200;28;20504;-64
2023/01/23 06:22:14;;;;;;;57.55;18.50;;;0.10;99.90;;;;;;5053442;28;20044;-65
2023/01/23 06:24:40;;;;;;;54.35;17.10;;;0.10;99.90;;;;;;5052806;28;20172;-65
2023/01/23 06:27:07;;;;;;;49.53;17.33;;;0.10;99.90;;;;;;5051349;28;20120;-65
2023/01/23 06:29:34;;;;;;;43.28;14.90;;;0.00;99.90;;;;;;5050305;28;20024;-65
2023/01/23 06:32:00;;;;;;;43.97;15.45;;;0.00;99.90;;;;;;5052406;28;20068;-65
2023/01/23 06:34:25;;;;;;;44.13;15.98;;;0.00;99.90;;;;;;5052021;28;20095;-65
2023/01/23 06:36:51;;;;;;;45.60;15.10;;;0.00;99.90;;;;;;5049973;28;20035;-65
2023/01/23 06:39:16;;;;;;;42.95;14.90;;;0.00;99.90;;;;;;5050464;28;20029;-66
2023/01/23 06:41:42;;;;;;;41.38;14.05;;;0.00;99.90;;;;;;5051327;28;20037;-64
2023/01/23 06:44:08;;;;;;;51.65;16.50;;;0.00;99.90;;;;;;5054316;28;20037;-63
2023/01/23 06:46:34;;;;;;;47.20;14.98;;;0.00;99.90;;;;;;5053033;28;20032;-63
2023/01/23 06:49:00;;;;;;;56.78;17.38;;;0.00;99.90;;;;;;5053187;28;20028;-63
2023/01/23 06:51:25;;;;;;;51.95;16.17;;;0.00;99.90;;;;;;5051445;28;20044;-62
2023/01/23 06:53:51;;;;;;;51.85;17.00;;;0.00;99.90;;;;;;5052752;28;20078;-64
2023/01/23 06:56:17;;;;;;;47.58;15.60;;;0.00;99.90;;;;;;5051729;28;20021;-64
2023/01/23 06:58:44;;;;;;;45.58;15.63;;;0.00;99.90;;;;;;5048932;28;20749;-63
2023/01/23 07:01:12;;;;;;;48.05;17.05;;;0.00;99.90;;;;;;5047282;28;20119;-63
2023/01/23 07:03:37;;;;;;;57.53;17.80;;;0.00;99.90;;;;;;5052955;28;20058;-63
2023/01/23 07:06:06;;;;;;;45.92;15.93;;;0.00;99.90;;;;;;5052158;28;20028;-62
2023/01/23 07:08:33;;;;;;;49.75;16.20;;;0.00;99.90;;;;;;5052080;28;20044;-63
2023/01/23 07:11:00;;;;;;;47.47;15.68;;;0.00;99.90;;;;;;5051035;28;20041;-63
2023/01/23 07:13:26;;;;;;;45.80;15.95;;;0.00;99.90;;;;;;5050664;28;20044;-63
2023/01/23 07:15:51;;;;;;;45.90;15.85;;;0.00;99.90;;;;;;5050928;28;20029;-64
2023/01/23 07:18:17;;;;;;;46.60;15.38;;;0.00;99.90;;;;;;5048397;28;20036;-63
2023/01/23 07:20:44;;;;;;;48.03;16.27;;;0.00;99.90;;;;;;5048591;28;20511;-63
2023/01/23 07:23:10;;;;;;;46.80;16.90;;;0.00;99.90;;;;;;5050339;28;20052;-63
2023/01/23 07:25:35;;;;;;;44.45;15.50;;;0.00;99.90;;;;;;5048198;28;20539;-62
2023/01/23 07:28:01;;;;;;;40.25;14.90;;;0.00;99.90;;;;;;5045274;28;20454;-63
2023/01/23 07:30:28;;;;;;;44.83;14.57;;;0.00;99.90;;;;;;5028873;28;20048;-63
2023/01/23 07:32:53;;;;;;;51.10;17.98;;;0.00;99.90;;;;;;5030942;28;20029;-63
2023/01/23 07:35:20;;;;;;;49.92;20.08;;;0.10;99.90;;;;;;5041584;28;20562;-61
2023/01/23 07:37:46;;;;;;;40.15;14.50;;;0.10;99.90;;;;;;5050512;28;20032;-63
2023/01/23 07:40:12;;;;;;;38.47;13.95;;;0.00;99.90;;;;;;5051105;28;20024;-63
2023/01/23 07:42:38;;;;;;;38.70;13.60;;;0.00;99.90;;;;;;5048202;28;20103;-63
2023/01/23 07:45:05;;;;;;;40.95;13.98;;;0.00;99.90;;;;;;5050401;28;20056;-63
2023/01/23 07:47:31;;;;;;;38.90;14.32;;;0.00;99.90;;;;;;5049842;28;20111;-63
2023/01/23 07:49:56;;;;;;;37.50;13.68;;;0.00;99.90;;;;;;5048700;28;20087;-63
2023/01/23 07:52:22;;;;;;;38.88;13.68;;;0.00;99.90;;;;;;5049433;28;20151;-64
2023/01/23 07:54:48;;;;;;;34.05;12.30;;;0.00;99.90;;;;;;5047585;28;20029;-63
2023/01/23 07:57:14;;;;;;;38.70;13.50;;;0.00;99.90;;;;;;5050577;28;20048;-63
2023/01/23 07:59:39;;;;;;;37.83;12.57;;;0.10;99.90;;;;;;5049394;28;20842;-63
2023/01/23 08:02:05;;;;;;;36.53;12.85;;;0.10;99.90;;;;;;5049149;28;20036;-63
2023/01/23 08:04:30;;;;;;;37.30;13.15;;;0.10;99.90;;;;;;5049435;28;20025;-63
2023/01/23 08:06:56;;;;;;;39.67;13.65;;;0.10;99.90;;;;;;5048506;28;20037;-63
2023/01/23 08:09:22;;;;;;;42.25;14.05;;;0.10;99.90;;;;;;5046609;28;20040;-62
2023/01/23 08:11:51;;;;;;;39.20;14.02;;;0.10;99.90;;;;;;5046733;28;20045;-63
2023/01/23 08:14:16;;;;;;;37.13;12.68;;;0.10;99.90;;;;;;5046913;28;20033;-63
2023/01/23 08:16:42;;;;;;;39.05;13.77;;;0.20;99.90;;;;;;5048392;28;20166;-63
2023/01/23 08:19:08;;;;;;;32.28;12.05;;;0.20;99.90;;;;;;5049367;28;20521;-63
2023/01/23 08:21:34;;;;;;;34.90;12.85;;;0.20;99.90;;;;;;5048783;28;20068;-63
2023/01/23 08:24:03;;;;;;;34.95;12.15;;;0.30;99.90;;;;;;5049043;28;20122;-63
2023/01/23 08:26:29;;;;;;;31.88;11.18;;;0.20;99.90;;;;;;5046988;28;20025;-63
2023/01/23 08:28:55;;;;;;;33.60;12.07;;;0.10;99.90;;;;;;5043565;28;20044;-63
2023/01/23 08:31:20;;;;;;;33.08;12.68;;;0.20;99.90;;;;;;5048508;28;20379;-63
2023/01/23 08:33:46;;;;;;;34.75;12.63;;;0.10;99.90;;;;;;5046698;28;20033;-63
2023/01/23 08:36:12;;;;;;;34.38;12.07;;;0.10;99.90;;;;;;5048597;28;20090;-63
2023/01/23 08:38:38;;;;;;;40.42;12.52;;;0.10;99.90;;;;;;5047785;28;20035;-63
2023/01/23 08:41:05;;;;;;;29.00;10.48;;;0.20;99.90;;;;;;5048477;28;20029;-63
2023/01/23 08:43:31;;;;;;;32.17;11.88;;;0.10;99.90;;;;;;5046271;28;20052;-63
2023/01/23 08:45:58;;;;;;;33.58;12.60;;;0.10;99.90;;;;;;5049519;28;20032;-63
2023/01/23 08:48:25;;;;;;;33.70;12.27;;;0.10;99.90;;;;;;5047025;28;20439;-63
2023/01/23 08:50:57;;;;;;;34.00;11.77;;;0.10;99.90;;;;;;5047080;28;20037;-63
2023/01/23 08:53:23;;;;;;;30.92;11.32;;;0.10;99.90;;;;;;5048544;28;20126;-64
2023/01/23 08:55:48;;;;;;;31.27;12.13;;;0.10;99.90;;;;;;5047057;28;20473;-64
2023/01/23 08:58:14;;;;;;;34.17;11.88;;;0.10;99.90;;;;;;5048334;28;20067;-63
2023/01/23 09:00:40;;;;;;;29.55;10.32;;;0.20;99.90;;;;;;5048471;28;20033;-63
2023/01/23 09:03:06;;;;;;;33.60;11.50;;;0.20;99.90;;;;;;5048293;28;20025;-62
2023/01/23 09:05:32;;;;;;;33.03;11.88;;;0.10;99.90;;;;;;5047027;28;20618;-63
2023/01/23 09:07:58;;;;;;;36.63;12.30;;;0.20;99.90;;;;;;5049311;28;20032;-63
2023/01/23 09:10:24;;;;;;;35.17;12.70;;;0.20;99.90;;;;;;5048597;28;20025;-65
2023/01/23 09:12:51;;;;;;;34.72;11.75;;;0.20;99.90;;;;;;5048683;28;20059;-63
2023/01/23 09:15:17;;;;;;;31.55;11.50;;;0.20;99.90;;;;;;5049250;28;20033;-64
2023/01/23 09:17:43;;;;;;;31.40;10.93;;;0.10;99.90;;;;;;5046446;28;20230;-63
2023/01/23 09:20:09;;;;;;;38.30;12.40;;;0.10;99.90;;;;;;5048827;28;20123;-63
2023/01/23 09:22:35;;;;;;;36.67;12.60;;;0.10;99.90;;;;;;5048093;28;20029;-63
2023/01/23 09:25:01;;;;;;;42.22;14.15;;;0.10;99.90;;;;;;5048958;28;20109;-64
2023/01/23 09:27:26;;;;;;;41.08;14.05;;;0.10;99.90;;;;;;5048379;28;20732;-63
2023/01/23 09:29:52;;;;;;;43.75;14.05;;;0.10;99.90;;;;;;5048640;28;20033;-63
2023/01/23 09:32:18;;;;;;;46.40;14.32;;;0.20;99.90;;;;;;5047405;28;20627;-62
2023/01/23 09:34:47;;;;;;;47.08;15.85;;;0.10;99.90;;;;;;5047398;28;20033;-63
2023/01/23 09:37:14;;;;;;;43.50;13.63;;;0.20;99.90;;;;;;5048739;28;20057;-62
2023/01/23 09:39:41;;;;;;;45.78;14.38;;;0.10;99.90;;;;;;5047867;28;20037;-62
2023/01/23 09:42:20;;;;;;;41.50;13.63;;;0.20;99.90;;;;;;5048574;28;20057;-63
2023/01/23 09:45:01;;;;;;;39.95;14.50;;;0.20;99.90;;;;;;5043646;28;20036;-63
2023/01/23 09:47:42;;;;;;;39.88;13.52;;;0.20;99.90;;;;;;5046831;28;20060;-64
2023/01/23 09:50:18;;;;;;;42.13;14.43;;;0.20;99.90;;;;;;5041591;28;20040;-63
2023/01/23 09:52:53;;;;;;;44.10;14.55;;;0.20;99.90;;;;;;5047584;28;20029;-63
2023/01/23 09:55:39;;;;;;;42.00;14.63;;;0.30;99.90;;;;;;5048827;28;20204;-64
2023/01/23 09:58:20;;;;;;;48.80;16.13;;;0.30;99.90;;;;;;5048309;28;20107;-63
2023/01/23 10:00:47;;;;;;;40.08;13.73;;;0.30;99.90;;;;;;5046398;28;20216;-62
2023/01/23 10:03:15;;;;;;;36.90;11.82;;;0.20;99.90;;;;;;5046652;28;20548;-63
2023/01/23 10:06:00;;;;;;;38.25;13.65;;;0.20;99.90;;;;;;5047590;28;20025;-64
2023/01/23 10:08:57;;;;;;;42.10;14.57;;;0.30;99.90;;;;;;5047861;28;20470;-64
2023/01/23 10:11:44;;;;;;;38.65;13.48;;;0.30;99.90;;;;;;5048169;28;20167;-63
2023/01/23 10:14:38;;;;;;;39.22;14.65;;;0.30;99.90;;;;;;5041435;28;20025;-63
2023/01/23 10:17:28;;;;;;;44.17;14.73;;;0.40;99.90;;;;;;5040712;28;20040;-63
2023/01/23 10:20:29;;;;;;;49.33;14.18;;;0.40;99.90;;;;;;5048453;28;20520;-63
2023/01/23 10:23:00;;;;;;;;;;;0.40;99.90;;;;;;5048856;28;20025;-63
2023/01/23 10:25:31;;;;;;;37.42;13.25;;;0.50;99.90;;;;;;5047909;28;19905;-63
2023/01/23 10:28:15;;;;;;;43.10;13.32;;;0.50;99.90;;;;;;5048265;28;20108;-62
2023/01/23 10:30:42;;;;;;;40.58;13.27;;;0.60;99.90;;;;;;5047753;28;20514;-62
2023/01/23 10:33:17;;;;;;;39.28;12.60;;;0.60;99.90;;;;;;5045604;28;20445;-63
2023/01/23 10:35:51;;;;;;;38.95;12.45;;;0.60;99.90;;;;;;5047013;28;20052;-63
2023/01/23 10:38:36;;;;;;;46.10;14.85;;;0.70;99.90;;;;;;5048201;28;20036;-63
2023/01/23 10:41:13;;;;;;;49.40;15.15;;;0.70;99.90;;;;;;5047949;28;20107;-63
2023/01/23 10:43:39;;;;;;;40.47;14.55;;;0.70;99.90;;;;;;5042858;28;20065;-63
2023/01/23 10:46:40;;;;;;;48.17;15.95;;;0.70;99.90;;;;;;5043227;28;20446;-63
2023/01/23 10:49:06;;;;;;;46.03;15.18;;;0.70;99.90;;;;;;5047501;28;20121;-63
2023/01/23 10:51:37;;;;;;;46.58;14.52;;;0.80;99.90;;;;;;5050768;28;20136;-63
2023/01/23 10:54:20;;;;;;;40.60;14.45;;;0.70;99.90;;;;;;5052055;28;20032;-64
2023/01/23 10:56:57;;;;;;;42.22;13.90;;;0.70;99.90;;;;;;5047816;28;20148;-63
2023/01/23 10:59:36;;;;;;;46.70;17.23;;;0.70;99.90;;;;;;5051020;28;20033;-63
2023/01/23 11:02:17;;;;;;;46.10;15.95;;;0.80;99.90;;;;;;5050784;28;20033;-63
2023/01/23 11:04:46;;;;;;;49.13;17.60;;;0.90;99.90;;;;;;5050574;28;20036;-63
2023/01/23 11:07:13;;;;;;;43.47;15.18;;;0.90;99.90;;;;;;5051601;28;20083;-63
2023/01/23 11:09:57;;;;;;;41.33;15.98;;;0.80;99.90;;;;;;5050694;28;20036;-63
2023/01/23 11:12:25;;;;;;;42.63;15.98;;;0.80;99.90;;;;;;5051003;28;20040;-63
2023/01/23 11:15:24;;;;;;;42.10;14.32;;;0.90;99.90;;;;;;5050539;28;20819;-63
2023/01/23 11:17:51;;;;;;;47.20;15.93;;;1.10;99.90;;;;;;5049664;28;20104;-64
2023/01/23 11:20:28;;;;;;;46.75;15.38;;;1.10;99.90;;;;;;5050731;28;20478;-63
2023/01/23 11:23:09;;;;;;;41.90;14.05;;;1.10;99.90;;;;;;5050408;28;20107;-63
2023/01/23 11:25:43;;;;;;;41.35;14.65;;;1.10;99.90;;;;;;5050172;28;20032;-62
2023/01/23 11:28:44;;;;;;;45.95;15.52;;;1.20;99.90;;;;;;5051068;28;20041;-63
2023/01/23 11:31:17;;;;;;;45.45;14.57;;;1.20;99.90;;;;;;5050998;28;20033;-63
2023/01/23 11:33:55;;;;;;;39.00;13.52;;;1.10;99.90;;;;;;5045998;28;20076;-63
2023/01/23 11:36:40;;;;;;;35.30;11.80;;;1.20;99.90;;;;;;5051014;28;20029;-63
2023/01/23 11:39:17;;;;;;;37.67;12.50;;;1.10;99.90;;;;;;5051015;28;20029;-62
2023/01/23 11:41:44;;;;;;;35.55;12.80;;;1.00;99.90;;;;;;5045968;28;20028;-63
2023/01/23 11:44:21;;;;;;;40.05;13.27;;;1.10;99.90;;;;;;5051118;28;20041;-63
2023/01/23 11:46:57;;;;;;;35.08;12.13;;;1.10;99.90;;;;;;5049377;28;20036;-63
2023/01/23 11:49:34;;;;;;;36.80;13.73;;;1.20;99.90;;;;;;5050615;28;20032;-63
2023/01/23 11:52:21;;;;;;;34.47;13.00;;;1.30;99.90;;;;;;5050306;28;20048;-63
2023/01/23 11:55:19;;;;;;;38.30;13.68;;;1.20;99.90;;;;;;5048486;28;20036;-63
2023/01/23 11:58:00;;;;;;;38.60;13.07;;;1.20;99.90;;;;;;5049578;28;20017;-63
2023/01/23 12:01:11;;;;;;;36.92;12.98;;;1.20;99.90;;;;;;5050917;28;20099;-63
2023/01/23 12:04:09;;;;;;;41.42;14.02;;;1.20;99.90;;;;;;4977604;28;20471;-63
2023/01/23 12:06:34;;;;;;;41.88;15.13;;;1.30;99.90;;;;;;5049701;28;20123;-61
2023/01/23 12:09:15;;;;;;;47.17;17.45;;;1.40;99.90;;;;;;5049738;28;20422;-63
2023/01/23 12:12:14;;;;;;;46.58;16.73;;;1.50;99.90;;;;;;5049184;28;20478;-63
2023/01/23 12:14:46;;;;;;;37.67;14.65;;;1.60;99.90;;;;;;5049460;28;20033;-64
2023/01/23 12:17:17;;;;;;;40.47;14.32;;;1.40;99.90;;;;;;5050051;28;20031;-63
2023/01/23 12:20:01;;;;;;;43.53;15.35;;;1.50;99.90;;;;;;5049167;28;20029;-63
2023/01/23 12:23:02;;;;;;;43.88;15.18;;;1.50;99.90;;;;;;5050245;28;20040;-63
2023/01/23 12:25:36;;;;;;;39.80;13.70;;;1.60;99.90;;;;;;5030232;28;20069;-63
2023/01/23 12:28:13;;;;;;;36.25;13.10;;;1.70;99.90;;;;;;5030124;28;20474;-63
2023/01/23 12:30:53;;;;;;;38.35;13.13;;;1.80;99.90;;;;;;5029041;28;20068;-64
2023/01/23 12:33:56;;;;;;;34.00;13.07;;;2.00;99.90;;;;;;5047690;28;20047;-63
2023/01/23 12:36:41;;;;;;;37.97;13.65;;;2.20;99.90;;;;;;5034907;28;20118;-63
2023/01/23 12:39:16;;;;;;;44.58;16.10;;;2.20;99.90;;;;;;5049732;28;20112;-63
2023/01/23 12:41:47;;;;;;;36.20;13.93;;;2.30;99.90;;;;;;5048248;28;20033;-63
2023/01/23 12:44:15;;;;;;;66.47;22.88;;;2.30;99.90;;;;;;5049740;28;20118;-63
2023/01/23 12:46:54;;;;;;;33.17;13.55;;;2.20;99.90;;;;;;5048000;28;20025;-63
2023/01/23 12:49:23;;;;;;;28.97;11.97;;;2.20;99.90;;;;;;5049502;28;20071;-63
2023/01/23 12:51:59;;;;;;;37.47;15.38;;;2.20;99.90;;;;;;5047971;28;20661;-63
2023/01/23 12:54:47;;;;;;;39.75;14.55;;;2.20;99.90;;;;;;5029449;28;20112;-63
2023/01/23 12:57:13;;;;;;;35.95;13.70;;;2.30;99.90;;;;;;5029496;28;20093;-63
2023/01/23 12:59:48;;;;;;;31.65;12.40;;;2.40;99.90;;;;;;5028772;28;20386;-63